sensor_id;sensor_type;location;lat;lon;timestamp;P1;durP1;ratioP1;P2;durP2;ratioP2
23702;SDS011;12030;50.376;8.762;2023-07-20T00:01:11;4.20;;;1.77;;
23702;SDS011;12030;50.376;8.762;2023-07-20T00:03:37;5.17;;;1.70;;
23702;SDS011;12030;50.376;8.762;2023-07-20T00:06:02;4.40;;;1.80;;
23702;SDS011;12030;50.376;8.762;2023-07-20T00:08:29;4.30;;;2.03;;
23702;SDS011;12030;50.376;8.762;2023-07-20T00:10:55;3.95;;;1.73;;
23702;SDS011;12030;50.376;8.762;2023-07-20T00:13:21;3.57;;;1.67;;
23702;SDS011;12030;50.376;8.762;2023-07-20T00:15:46;2.67;;;1.60;;
23702;SDS011;12030;50.376;8.762;2023-07-20T00:18:12;4.30;;;1.90;;
23702;SDS011;12030;50.376;8.762;2023-07-20T00:20:38;4.72;;;1.90;;
23702;SDS011;12030;50.376;8.762;2023-07-20T00:23:04;5.35;;;2.08;;
23702;SDS011;12030;50.376;8.762;2023-07-20T00:25:30;4.10;;;1.90;;
23702;SDS011;12030;50.376;8.762;2023-07-20T00:27:55;6.40;;;2.20;;
23702;SDS011;12030;50.376;8.762;2023-07-20T00:30:21;2.95;;;1.77;;
23702;SDS011;12030;50.376;8.762;2023-07-20T00:32:46;5.90;;;2.00;;
23702;SDS011;12030;50.376;8.762;2023-07-20T00:35:12;3.83;;;2.00;;
23702;SDS011;12030;50.376;8.762;2023-07-20T00:37:39;5.23;;;2.60;;
23702;SDS011;12030;50.376;8.762;2023-07-20T00:40:05;3.85;;;1.80;;
23702;SDS011;12030;50.376;8.762;2023-07-20T00:42:32;3.97;;;2.10;;
23702;SDS011;12030;50.376;8.762;2023-07-20T00:48:16;3.97;;;1.90;;
23702;SDS011;12030;50.376;8.762;2023-07-20T00:50:42;4.85;;;1.70;;
23702;SDS011;12030;50.376;8.762;2023-07-20T00:53:08;5.33;;;1.90;;
23702;SDS011;12030;50.376;8.762;2023-07-20T00:55:33;4.47;;;2.20;;
23702;SDS011;12030;50.376;8.762;2023-07-20T00:57:59;3.60;;;2.60;;
23702;SDS011;12030;50.376;8.762;2023-07-20T01:00:25;3.83;;;1.70;;
23702;SDS011;12030;50.376;8.762;2023-07-20T01:02:51;3.80;;;2.00;;
23702;SDS011;12030;50.376;8.762;2023-07-20T01:05:17;3.33;;;2.30;;
23702;SDS011;12030;50.376;8.762;2023-07-20T01:07:45;2.73;;;1.70;;
23702;SDS011;12030;50.376;8.762;2023-07-20T01:10:31;7.43;;;2.10;;
23702;SDS011;12030;50.376;8.762;2023-07-20T01:13:04;3.77;;;1.90;;
23702;SDS011;12030;50.376;8.762;2023-07-20T01:15:33;4.80;;;1.93;;
23702;SDS011;12030;50.376;8.762;2023-07-20T01:17:59;9.30;;;2.33;;
23702;SDS011;12030;50.376;8.762;2023-07-20T01:20:26;2.93;;;2.00;;
23702;SDS011;12030;50.376;8.762;2023-07-20T01:25:32;3.67;;;1.90;;
23702;SDS011;12030;50.376;8.762;2023-07-20T01:31:20;3.47;;;2.00;;
23702;SDS011;12030;50.376;8.762;2023-07-20T01:33:46;5.50;;;2.23;;
23702;SDS011;12030;50.376;8.762;2023-07-20T01:36:13;3.47;;;2.00;;
23702;SDS011;12030;50.376;8.762;2023-07-20T01:38:41;3.33;;;1.97;;
23702;SDS011;12030;50.376;8.762;2023-07-20T01:41:07;2.27;;;2.07;;
23702;SDS011;12030;50.376;8.762;2023-07-20T01:43:34;4.57;;;2.37;;
23702;SDS011;12030;50.376;8.762;2023-07-20T01:45:59;3.93;;;2.10;;
23702;SDS011;12030;50.376;8.762;2023-07-20T01:48:25;4.27;;;2.37;;
23702;SDS011;12030;50.376;8.762;2023-07-20T01:50:50;5.67;;;2.40;;
23702;SDS011;12030;50.376;8.762;2023-07-20T01:53:16;4.00;;;2.53;;
23702;SDS011;12030;50.376;8.762;2023-07-20T01:55:41;3.43;;;1.97;;
23702;SDS011;12030;50.376;8.762;2023-07-20T01:58:07;3.03;;;2.20;;
23702;SDS011;12030;50.376;8.762;2023-07-20T02:00:32;3.90;;;2.17;;
23702;SDS011;12030;50.376;8.762;2023-07-20T02:02:58;4.80;;;2.67;;
23702;SDS011;12030;50.376;8.762;2023-07-20T02:05:23;3.07;;;2.10;;
23702;SDS011;12030;50.376;8.762;2023-07-20T02:07:49;3.23;;;2.20;;
23702;SDS011;12030;50.376;8.762;2023-07-20T02:10:15;3.00;;;1.87;;
23702;SDS011;12030;50.376;8.762;2023-07-20T02:12:41;4.63;;;2.13;;
23702;SDS011;12030;50.376;8.762;2023-07-20T02:15:06;3.50;;;2.20;;
23702;SDS011;12030;50.376;8.762;2023-07-20T02:17:33;4.70;;;2.30;;
23702;SDS011;12030;50.376;8.762;2023-07-20T02:19:58;3.20;;;2.00;;
23702;SDS011;12030;50.376;8.762;2023-07-20T02:22:24;2.97;;;2.23;;
23702;SDS011;12030;50.376;8.762;2023-07-20T02:24:50;2.83;;;2.00;;
23702;SDS011;12030;50.376;8.762;2023-07-20T02:27:16;4.37;;;2.20;;
23702;SDS011;12030;50.376;8.762;2023-07-20T02:29:41;3.90;;;2.00;;
23702;SDS011;12030;50.376;8.762;2023-07-20T02:32:08;3.57;;;1.97;;
23702;SDS011;12030;50.376;8.762;2023-07-20T02:34:37;5.83;;;2.30;;
23702;SDS011;12030;50.376;8.762;2023-07-20T02:37:03;2.77;;;2.37;;
23702;SDS011;12030;50.376;8.762;2023-07-20T02:39:29;3.47;;;2.10;;
23702;SDS011;12030;50.376;8.762;2023-07-20T02:41:55;3.00;;;2.20;;
23702;SDS011;12030;50.376;8.762;2023-07-20T02:44:20;2.97;;;2.03;;
23702;SDS011;12030;50.376;8.762;2023-07-20T02:46:46;2.43;;;1.97;;
23702;SDS011;12030;50.376;8.762;2023-07-20T02:49:11;2.90;;;2.10;;
23702;SDS011;12030;50.376;8.762;2023-07-20T02:51:37;3.50;;;2.37;;
23702;SDS011;12030;50.376;8.762;2023-07-20T02:54:03;5.17;;;2.27;;
23702;SDS011;12030;50.376;8.762;2023-07-20T02:56:28;3.77;;;2.13;;
23702;SDS011;12030;50.376;8.762;2023-07-20T02:58:54;2.30;;;1.90;;
23702;SDS011;12030;50.376;8.762;2023-07-20T03:01:19;4.60;;;2.27;;
23702;SDS011;12030;50.376;8.762;2023-07-20T03:03:45;3.23;;;2.40;;
23702;SDS011;12030;50.376;8.762;2023-07-20T03:06:14;3.93;;;2.30;;
23702;SDS011;12030;50.376;8.762;2023-07-20T03:08:40;4.50;;;2.30;;
23702;SDS011;12030;50.376;8.762;2023-07-20T03:11:10;5.27;;;2.33;;
23702;SDS011;12030;50.376;8.762;2023-07-20T03:13:36;3.17;;;2.57;;
23702;SDS011;12030;50.376;8.762;2023-07-20T03:16:01;2.70;;;2.17;;
23702;SDS011;12030;50.376;8.762;2023-07-20T03:18:27;2.40;;;2.20;;
23702;SDS011;12030;50.376;8.762;2023-07-20T03:20:52;3.67;;;2.20;;
23702;SDS011;12030;50.376;8.762;2023-07-20T03:23:18;4.23;;;2.63;;
23702;SDS011;12030;50.376;8.762;2023-07-20T03:25:43;3.17;;;2.43;;
23702;SDS011;12030;50.376;8.762;2023-07-20T03:28:09;3.10;;;2.17;;
23702;SDS011;12030;50.376;8.762;2023-07-20T03:30:34;3.43;;;2.17;;
23702;SDS011;12030;50.376;8.762;2023-07-20T03:33:00;2.83;;;2.13;;
23702;SDS011;12030;50.376;8.762;2023-07-20T03:35:25;3.13;;;2.10;;
23702;SDS011;12030;50.376;8.762;2023-07-20T03:37:51;4.50;;;2.30;;
23702;SDS011;12030;50.376;8.762;2023-07-20T03:40:17;4.47;;;2.13;;
23702;SDS011;12030;50.376;8.762;2023-07-20T03:42:42;3.40;;;2.50;;
23702;SDS011;12030;50.376;8.762;2023-07-20T03:45:08;4.30;;;2.33;;
23702;SDS011;12030;50.376;8.762;2023-07-20T03:47:34;3.97;;;2.47;;
23702;SDS011;12030;50.376;8.762;2023-07-20T03:49:59;4.37;;;2.47;;
23702;SDS011;12030;50.376;8.762;2023-07-20T03:52:25;3.67;;;2.73;;
23702;SDS011;12030;50.376;8.762;2023-07-20T03:54:50;4.33;;;2.17;;
23702;SDS011;12030;50.376;8.762;2023-07-20T03:57:16;3.07;;;2.50;;
23702;SDS011;12030;50.376;8.762;2023-07-20T03:59:44;4.43;;;2.70;;
23702;SDS011;12030;50.376;8.762;2023-07-20T04:02:11;4.17;;;2.43;;
23702;SDS011;12030;50.376;8.762;2023-07-20T04:04:36;2.77;;;2.30;;
23702;SDS011;12030;50.376;8.762;2023-07-20T04:07:02;4.07;;;2.20;;
23702;SDS011;12030;50.376;8.762;2023-07-20T04:09:27;4.77;;;2.47;;
23702;SDS011;12030;50.376;8.762;2023-07-20T04:11:53;3.93;;;2.47;;
23702;SDS011;12030;50.376;8.762;2023-07-20T04:14:19;6.50;;;2.60;;
23702;SDS011;12030;50.376;8.762;2023-07-20T04:16:46;3.50;;;2.03;;
23702;SDS011;12030;50.376;8.762;2023-07-20T04:19:12;2.83;;;2.10;;
23702;SDS011;12030;50.376;8.762;2023-07-20T04:21:40;4.10;;;2.30;;
23702;SDS011;12030;50.376;8.762;2023-07-20T04:24:06;2.80;;;2.23;;
23702;SDS011;12030;50.376;8.762;2023-07-20T04:26:32;8.17;;;2.47;;
23702;SDS011;12030;50.376;8.762;2023-07-20T04:28:57;3.13;;;2.20;;
23702;SDS011;12030;50.376;8.762;2023-07-20T04:31:24;4.70;;;2.50;;
23702;SDS011;12030;50.376;8.762;2023-07-20T04:33:50;4.03;;;2.60;;
23702;SDS011;12030;50.376;8.762;2023-07-20T04:36:15;2.83;;;2.10;;
23702;SDS011;12030;50.376;8.762;2023-07-20T04:38:44;5.20;;;2.80;;
23702;SDS011;12030;50.376;8.762;2023-07-20T04:41:10;3.87;;;1.90;;
23702;SDS011;12030;50.376;8.762;2023-07-20T04:43:38;4.53;;;1.90;;
23702;SDS011;12030;50.376;8.762;2023-07-20T04:46:07;3.23;;;2.47;;
23702;SDS011;12030;50.376;8.762;2023-07-20T04:48:33;4.30;;;2.10;;
23702;SDS011;12030;50.376;8.762;2023-07-20T04:50:58;4.33;;;2.03;;
23702;SDS011;12030;50.376;8.762;2023-07-20T04:53:24;4.17;;;2.33;;
23702;SDS011;12030;50.376;8.762;2023-07-20T04:55:50;4.30;;;2.50;;
23702;SDS011;12030;50.376;8.762;2023-07-20T04:58:17;4.90;;;2.33;;
23702;SDS011;12030;50.376;8.762;2023-07-20T05:00:43;4.97;;;2.33;;
23702;SDS011;12030;50.376;8.762;2023-07-20T05:03:09;4.63;;;2.37;;
23702;SDS011;12030;50.376;8.762;2023-07-20T05:05:34;3.77;;;2.27;;
23702;SDS011;12030;50.376;8.762;2023-07-20T05:08:00;4.10;;;2.17;;
23702;SDS011;12030;50.376;8.762;2023-07-20T05:10:25;4.27;;;2.30;;
23702;SDS011;12030;50.376;8.762;2023-07-20T05:12:51;4.43;;;2.03;;
23702;SDS011;12030;50.376;8.762;2023-07-20T05:15:16;3.00;;;2.40;;
23702;SDS011;12030;50.376;8.762;2023-07-20T05:17:42;3.40;;;2.00;;
23702;SDS011;12030;50.376;8.762;2023-07-20T05:20:08;3.07;;;2.07;;
23702;SDS011;12030;50.376;8.762;2023-07-20T05:22:37;2.80;;;1.73;;
23702;SDS011;12030;50.376;8.762;2023-07-20T05:25:08;2.03;;;1.70;;
23702;SDS011;12030;50.376;8.762;2023-07-20T05:27:38;1.60;;;1.43;;
23702;SDS011;12030;50.376;8.762;2023-07-20T05:30:06;3.37;;;1.77;;
23702;SDS011;12030;50.376;8.762;2023-07-20T05:32:33;2.00;;;1.40;;
23702;SDS011;12030;50.376;8.762;2023-07-20T05:34:59;2.53;;;1.40;;
23702;SDS011;12030;50.376;8.762;2023-07-20T05:37:24;2.47;;;1.60;;
23702;SDS011;12030;50.376;8.762;2023-07-20T05:39:50;3.10;;;1.60;;
23702;SDS011;12030;50.376;8.762;2023-07-20T05:42:16;1.97;;;1.47;;
23702;SDS011;12030;50.376;8.762;2023-07-20T05:44:41;2.97;;;1.50;;
23702;SDS011;12030;50.376;8.762;2023-07-20T05:47:07;3.03;;;1.60;;
23702;SDS011;12030;50.376;8.762;2023-07-20T05:49:33;1.83;;;1.37;;
23702;SDS011;12030;50.376;8.762;2023-07-20T05:51:59;2.20;;;1.60;;
23702;SDS011;12030;50.376;8.762;2023-07-20T05:54:26;3.43;;;1.30;;
23702;SDS011;12030;50.376;8.762;2023-07-20T05:56:51;2.73;;;1.70;;
23702;SDS011;12030;50.376;8.762;2023-07-20T05:59:17;2.27;;;1.37;;
23702;SDS011;12030;50.376;8.762;2023-07-20T06:01:44;4.77;;;1.73;;
23702;SDS011;12030;50.376;8.762;2023-07-20T06:04:11;3.13;;;1.87;;
23702;SDS011;12030;50.376;8.762;2023-07-20T06:06:36;3.37;;;1.73;;
23702;SDS011;12030;50.376;8.762;2023-07-20T06:09:02;2.97;;;1.50;;
23702;SDS011;12030;50.376;8.762;2023-07-20T06:11:29;3.33;;;1.83;;
23702;SDS011;12030;50.376;8.762;2023-07-20T06:13:56;4.57;;;1.93;;
23702;SDS011;12030;50.376;8.762;2023-07-20T06:16:22;3.53;;;1.80;;
23702;SDS011;12030;50.376;8.762;2023-07-20T06:18:47;3.17;;;1.60;;
23702;SDS011;12030;50.376;8.762;2023-07-20T06:21:13;4.10;;;1.80;;
23702;SDS011;12030;50.376;8.762;2023-07-20T06:23:38;2.63;;;1.87;;
23702;SDS011;12030;50.376;8.762;2023-07-20T06:26:05;2.33;;;1.70;;
23702;SDS011;12030;50.376;8.762;2023-07-20T06:28:32;4.00;;;1.80;;
23702;SDS011;12030;50.376;8.762;2023-07-20T06:31:01;5.33;;;1.93;;
23702;SDS011;12030;50.376;8.762;2023-07-20T06:33:29;3.80;;;1.93;;
23702;SDS011;12030;50.376;8.762;2023-07-20T06:35:55;2.97;;;1.57;;
23702;SDS011;12030;50.376;8.762;2023-07-20T06:38:21;2.83;;;2.00;;
23702;SDS011;12030;50.376;8.762;2023-07-20T06:40:48;4.77;;;1.70;;
23702;SDS011;12030;50.376;8.762;2023-07-20T06:43:14;4.40;;;1.50;;
23702;SDS011;12030;50.376;8.762;2023-07-20T06:45:40;7.23;;;1.70;;
23702;SDS011;12030;50.376;8.762;2023-07-20T06:48:06;2.73;;;1.67;;
23702;SDS011;12030;50.376;8.762;2023-07-20T06:50:31;3.67;;;1.90;;
23702;SDS011;12030;50.376;8.762;2023-07-20T06:52:57;4.57;;;1.87;;
23702;SDS011;12030;50.376;8.762;2023-07-20T06:55:23;3.92;;;2.20;;
23702;SDS011;12030;50.376;8.762;2023-07-20T06:57:49;3.67;;;2.10;;
23702;SDS011;12030;50.376;8.762;2023-07-20T07:00:15;4.43;;;2.20;;
23702;SDS011;12030;50.376;8.762;2023-07-20T07:02:41;3.57;;;2.40;;
23702;SDS011;12030;50.376;8.762;2023-07-20T07:05:06;4.17;;;2.50;;
23702;SDS011;12030;50.376;8.762;2023-07-20T07:07:32;5.67;;;2.20;;
23702;SDS011;12030;50.376;8.762;2023-07-20T07:09:57;4.53;;;2.40;;
23702;SDS011;12030;50.376;8.762;2023-07-20T07:12:23;4.43;;;2.47;;
23702;SDS011;12030;50.376;8.762;2023-07-20T07:14:49;4.10;;;2.40;;
23702;SDS011;12030;50.376;8.762;2023-07-20T07:17:14;5.03;;;2.30;;
23702;SDS011;12030;50.376;8.762;2023-07-20T07:19:40;4.00;;;2.30;;
23702;SDS011;12030;50.376;8.762;2023-07-20T07:22:07;2.70;;;1.95;;
23702;SDS011;12030;50.376;8.762;2023-07-20T07:24:32;3.63;;;2.23;;
23702;SDS011;12030;50.376;8.762;2023-07-20T07:27:01;4.47;;;2.22;;
23702;SDS011;12030;50.376;8.762;2023-07-20T07:29:27;3.28;;;1.98;;
23702;SDS011;12030;50.376;8.762;2023-07-20T07:31:53;2.50;;;2.00;;
23702;SDS011;12030;50.376;8.762;2023-07-20T07:34:18;3.83;;;2.13;;
23702;SDS011;12030;50.376;8.762;2023-07-20T07:36:44;5.00;;;2.30;;
23702;SDS011;12030;50.376;8.762;2023-07-20T07:39:10;2.67;;;1.90;;
23702;SDS011;12030;50.376;8.762;2023-07-20T07:41:35;4.75;;;2.25;;
23702;SDS011;12030;50.376;8.762;2023-07-20T07:44:01;4.35;;;2.55;;
23702;SDS011;12030;50.376;8.762;2023-07-20T07:46:27;5.07;;;2.55;;
23702;SDS011;12030;50.376;8.762;2023-07-20T07:48:52;3.58;;;2.22;;
23702;SDS011;12030;50.376;8.762;2023-07-20T07:51:18;4.13;;;2.40;;
23702;SDS011;12030;50.376;8.762;2023-07-20T07:53:45;3.50;;;2.30;;
23702;SDS011;12030;50.376;8.762;2023-07-20T07:56:11;4.25;;;2.35;;
23702;SDS011;12030;50.376;8.762;2023-07-20T07:58:37;5.23;;;2.40;;
23702;SDS011;12030;50.376;8.762;2023-07-20T08:01:02;3.43;;;2.27;;
23702;SDS011;12030;50.376;8.762;2023-07-20T08:03:28;2.80;;;2.10;;
23702;SDS011;12030;50.376;8.762;2023-07-20T08:05:54;5.78;;;2.60;;
23702;SDS011;12030;50.376;8.762;2023-07-20T08:08:20;3.28;;;2.20;;
23702;SDS011;12030;50.376;8.762;2023-07-20T08:10:46;5.00;;;2.30;;
23702;SDS011;12030;50.376;8.762;2023-07-20T08:13:12;3.17;;;2.37;;
23702;SDS011;12030;50.376;8.762;2023-07-20T08:15:38;4.50;;;2.45;;
23702;SDS011;12030;50.376;8.762;2023-07-20T08:18:04;4.53;;;2.10;;
23702;SDS011;12030;50.376;8.762;2023-07-20T08:20:30;2.58;;;2.00;;
23702;SDS011;12030;50.376;8.762;2023-07-20T08:22:57;4.45;;;2.45;;
23702;SDS011;12030;50.376;8.762;2023-07-20T08:25:24;3.50;;;2.20;;
23702;SDS011;12030;50.376;8.762;2023-07-20T08:27:50;3.28;;;1.90;;
23702;SDS011;12030;50.376;8.762;2023-07-20T08:30:16;4.83;;;2.10;;
23702;SDS011;12030;50.376;8.762;2023-07-20T08:32:42;2.63;;;2.17;;
23702;SDS011;12030;50.376;8.762;2023-07-20T08:35:08;4.57;;;2.25;;
23702;SDS011;12030;50.376;8.762;2023-07-20T08:37:33;2.80;;;2.20;;
23702;SDS011;12030;50.376;8.762;2023-07-20T08:39:59;3.40;;;2.27;;
23702;SDS011;12030;50.376;8.762;2023-07-20T08:42:25;4.57;;;2.20;;
23702;SDS011;12030;50.376;8.762;2023-07-20T08:44:51;6.25;;;2.75;;
23702;SDS011;12030;50.376;8.762;2023-07-20T08:47:17;3.55;;;2.50;;
23702;SDS011;12030;50.376;8.762;2023-07-20T08:49:46;3.72;;;2.30;;
23702;SDS011;12030;50.376;8.762;2023-07-20T08:52:13;4.47;;;2.33;;
23702;SDS011;12030;50.376;8.762;2023-07-20T08:54:40;3.28;;;2.00;;
23702;SDS011;12030;50.376;8.762;2023-07-20T08:57:05;3.97;;;2.17;;
23702;SDS011;12030;50.376;8.762;2023-07-20T08:59:32;4.07;;;2.05;;
23702;SDS011;12030;50.376;8.762;2023-07-20T09:02:01;3.60;;;1.90;;
23702;SDS011;12030;50.376;8.762;2023-07-20T09:04:29;4.40;;;2.30;;
23702;SDS011;12030;50.376;8.762;2023-07-20T09:06:54;4.20;;;2.00;;
23702;SDS011;12030;50.376;8.762;2023-07-20T09:09:21;4.00;;;1.90;;
23702;SDS011;12030;50.376;8.762;2023-07-20T09:11:48;5.37;;;2.20;;
23702;SDS011;12030;50.376;8.762;2023-07-20T09:14:14;3.70;;;2.40;;
23702;SDS011;12030;50.376;8.762;2023-07-20T09:16:47;3.78;;;2.20;;
23702;SDS011;12030;50.376;8.762;2023-07-20T09:19:20;3.65;;;1.90;;
23702;SDS011;12030;50.376;8.762;2023-07-20T09:21:47;2.55;;;1.60;;
23702;SDS011;12030;50.376;8.762;2023-07-20T09:24:14;2.85;;;1.60;;
23702;SDS011;12030;50.376;8.762;2023-07-20T09:26:41;2.65;;;1.70;;
23702;SDS011;12030;50.376;8.762;2023-07-20T09:29:08;4.13;;;1.80;;
23702;SDS011;12030;50.376;8.762;2023-07-20T09:31:35;3.33;;;1.63;;
23702;SDS011;12030;50.376;8.762;2023-07-20T09:34:00;3.83;;;1.80;;
23702;SDS011;12030;50.376;8.762;2023-07-20T09:36:26;2.60;;;1.52;;
23702;SDS011;12030;50.376;8.762;2023-07-20T09:38:53;3.58;;;1.80;;
23702;SDS011;12030;50.376;8.762;2023-07-20T09:41:19;3.33;;;1.58;;
23702;SDS011;12030;50.376;8.762;2023-07-20T09:43:45;4.10;;;1.60;;
23702;SDS011;12030;50.376;8.762;2023-07-20T09:46:11;2.73;;;1.67;;
23702;SDS011;12030;50.376;8.762;2023-07-20T09:48:37;4.67;;;1.77;;
23702;SDS011;12030;50.376;8.762;2023-07-20T09:51:02;4.90;;;1.47;;
23702;SDS011;12030;50.376;8.762;2023-07-20T09:53:30;2.83;;;1.40;;
23702;SDS011;12030;50.376;8.762;2023-07-20T09:55:58;4.03;;;1.45;;
23702;SDS011;12030;50.376;8.762;2023-07-20T09:58:25;2.40;;;1.20;;
23702;SDS011;12030;50.376;8.762;2023-07-20T10:00:52;3.08;;;1.40;;
23702;SDS011;12030;50.376;8.762;2023-07-20T10:03:22;2.10;;;1.30;;
23702;SDS011;12030;50.376;8.762;2023-07-20T10:06:06;2.95;;;1.30;;
23702;SDS011;12030;50.376;8.762;2023-07-20T10:08:34;2.47;;;1.53;;
23702;SDS011;12030;50.376;8.762;2023-07-20T10:11:04;2.75;;;1.40;;
23702;SDS011;12030;50.376;8.762;2023-07-20T10:13:32;3.60;;;1.30;;
23702;SDS011;12030;50.376;8.762;2023-07-20T10:16:03;2.97;;;1.10;;
23702;SDS011;12030;50.376;8.762;2023-07-20T10:18:41;1.80;;;1.20;;
23702;SDS011;12030;50.376;8.762;2023-07-20T10:21:17;1.65;;;1.20;;
23702;SDS011;12030;50.376;8.762;2023-07-20T10:23:44;1.88;;;1.20;;
23702;SDS011;12030;50.376;8.762;2023-07-20T10:26:11;1.50;;;0.90;;
23702;SDS011;12030;50.376;8.762;2023-07-20T10:28:38;1.63;;;1.10;;
23702;SDS011;12030;50.376;8.762;2023-07-20T10:31:04;2.13;;;1.10;;
23702;SDS011;12030;50.376;8.762;2023-07-20T10:33:32;2.00;;;1.00;;
23702;SDS011;12030;50.376;8.762;2023-07-20T10:36:00;2.80;;;1.10;;
23702;SDS011;12030;50.376;8.762;2023-07-20T10:41:15;2.37;;;1.33;;
23702;SDS011;12030;50.376;8.762;2023-07-20T10:43:45;1.60;;;1.20;;
23702;SDS011;12030;50.376;8.762;2023-07-20T10:46:11;1.83;;;1.10;;
23702;SDS011;12030;50.376;8.762;2023-07-20T10:48:58;3.10;;;1.08;;
23702;SDS011;12030;50.376;8.762;2023-07-20T10:51:27;3.08;;;1.20;;
23702;SDS011;12030;50.376;8.762;2023-07-20T10:53:56;1.88;;;1.30;;
23702;SDS011;12030;50.376;8.762;2023-07-20T10:56:25;2.00;;;1.10;;
23702;SDS011;12030;50.376;8.762;2023-07-20T10:58:57;1.23;;;1.00;;
23702;SDS011;12030;50.376;8.762;2023-07-20T11:01:27;2.17;;;1.20;;
23702;SDS011;12030;50.376;8.762;2023-07-20T11:03:56;2.00;;;1.10;;
23702;SDS011;12030;50.376;8.762;2023-07-20T11:08:57;2.00;;;1.00;;
23702;SDS011;12030;50.376;8.762;2023-07-20T11:11:30;1.38;;;0.90;;
23702;SDS011;12030;50.376;8.762;2023-07-20T11:13:58;2.45;;;1.00;;
23702;SDS011;12030;50.376;8.762;2023-07-20T11:19:01;2.20;;;0.95;;
23702;SDS011;12030;50.376;8.762;2023-07-20T11:21:28;1.63;;;0.98;;
23702;SDS011;12030;50.376;8.762;2023-07-20T11:23:55;1.85;;;1.17;;
23702;SDS011;12030;50.376;8.762;2023-07-20T11:26:21;1.50;;;0.80;;
23702;SDS011;12030;50.376;8.762;2023-07-20T11:28:49;1.05;;;0.82;;
23702;SDS011;12030;50.376;8.762;2023-07-20T11:31:17;1.53;;;0.80;;
23702;SDS011;12030;50.376;8.762;2023-07-20T11:33:46;1.30;;;0.88;;
23702;SDS011;12030;50.376;8.762;2023-07-20T11:36:12;1.55;;;0.82;;
23702;SDS011;12030;50.376;8.762;2023-07-20T11:38:39;1.40;;;0.80;;
23702;SDS011;12030;50.376;8.762;2023-07-20T11:41:07;3.28;;;1.00;;
23702;SDS011;12030;50.376;8.762;2023-07-20T11:43:33;1.80;;;1.13;;
23702;SDS011;12030;50.376;8.762;2023-07-20T11:45:59;1.85;;;1.20;;
23702;SDS011;12030;50.376;8.762;2023-07-20T11:48:25;1.70;;;0.90;;
23702;SDS011;12030;50.376;8.762;2023-07-20T11:50:51;2.93;;;1.13;;
23702;SDS011;12030;50.376;8.762;2023-07-20T11:53:16;1.75;;;1.13;;
23702;SDS011;12030;50.376;8.762;2023-07-20T11:55:43;2.08;;;1.10;;
23702;SDS011;12030;50.376;8.762;2023-07-20T11:58:10;1.50;;;1.20;;
23702;SDS011;12030;50.376;8.762;2023-07-20T12:00:37;2.00;;;1.10;;
23702;SDS011;12030;50.376;8.762;2023-07-20T12:03:05;2.03;;;1.00;;
23702;SDS011;12030;50.376;8.762;2023-07-20T12:05:35;2.40;;;1.10;;
23702;SDS011;12030;50.376;8.762;2023-07-20T12:08:02;1.70;;;1.10;;
23702;SDS011;12030;50.376;8.762;2023-07-20T12:10:28;3.40;;;1.20;;
23702;SDS011;12030;50.376;8.762;2023-07-20T12:12:55;1.92;;;1.00;;
23702;SDS011;12030;50.376;8.762;2023-07-20T12:15:28;2.60;;;0.80;;
23702;SDS011;12030;50.376;8.762;2023-07-20T12:17:58;1.70;;;0.90;;
23702;SDS011;12030;50.376;8.762;2023-07-20T12:20:25;1.60;;;0.90;;
23702;SDS011;12030;50.376;8.762;2023-07-20T12:22:56;1.48;;;0.80;;
23702;SDS011;12030;50.376;8.762;2023-07-20T12:25:40;3.33;;;1.00;;
23702;SDS011;12030;50.376;8.762;2023-07-20T12:28:12;2.25;;;1.30;;
23702;SDS011;12030;50.376;8.762;2023-07-20T12:30:42;1.17;;;1.08;;
23702;SDS011;12030;50.376;8.762;2023-07-20T12:33:12;2.10;;;1.10;;
23702;SDS011;12030;50.376;8.762;2023-07-20T12:35:40;1.40;;;1.30;;
23702;SDS011;12030;50.376;8.762;2023-07-20T12:38:06;1.58;;;1.00;;
23702;SDS011;12030;50.376;8.762;2023-07-20T12:40:32;1.90;;;0.98;;
23702;SDS011;12030;50.376;8.762;2023-07-20T12:42:57;2.60;;;0.95;;
23702;SDS011;12030;50.376;8.762;2023-07-20T12:45:23;1.50;;;0.90;;
23702;SDS011;12030;50.376;8.762;2023-07-20T12:47:49;2.63;;;1.10;;
23702;SDS011;12030;50.376;8.762;2023-07-20T12:50:14;2.10;;;1.02;;
23702;SDS011;12030;50.376;8.762;2023-07-20T12:52:40;2.13;;;1.05;;
23702;SDS011;12030;50.376;8.762;2023-07-20T12:55:06;1.60;;;0.80;;
23702;SDS011;12030;50.376;8.762;2023-07-20T12:57:33;3.45;;;1.10;;
23702;SDS011;12030;50.376;8.762;2023-07-20T13:00:00;1.40;;;1.00;;
23702;SDS011;12030;50.376;8.762;2023-07-20T13:02:32;2.17;;;1.17;;
23702;SDS011;12030;50.376;8.762;2023-07-20T13:04:58;1.50;;;0.80;;
23702;SDS011;12030;50.376;8.762;2023-07-20T13:07:31;1.40;;;0.80;;
23702;SDS011;12030;50.376;8.762;2023-07-20T13:09:58;1.83;;;1.00;;
23702;SDS011;12030;50.376;8.762;2023-07-20T13:12:25;1.30;;;0.80;;
23702;SDS011;12030;50.376;8.762;2023-07-20T13:14:51;3.67;;;1.20;;
23702;SDS011;12030;50.376;8.762;2023-07-20T13:17:17;1.07;;;0.80;;
23702;SDS011;12030;50.376;8.762;2023-07-20T13:19:42;1.00;;;0.80;;
23702;SDS011;12030;50.376;8.762;2023-07-20T13:22:08;0.98;;;0.70;;
23702;SDS011;12030;50.376;8.762;2023-07-20T13:24:33;2.60;;;0.80;;
23702;SDS011;12030;50.376;8.762;2023-07-20T13:26:59;3.00;;;1.27;;
23702;SDS011;12030;50.376;8.762;2023-07-20T13:29:24;2.10;;;1.13;;
23702;SDS011;12030;50.376;8.762;2023-07-20T13:31:50;2.37;;;1.07;;
23702;SDS011;12030;50.376;8.762;2023-07-20T13:34:15;3.53;;;1.15;;
23702;SDS011;12030;50.376;8.762;2023-07-20T13:36:41;1.25;;;0.95;;
23702;SDS011;12030;50.376;8.762;2023-07-20T13:39:06;3.30;;;1.10;;
23702;SDS011;12030;50.376;8.762;2023-07-20T13:41:33;2.63;;;1.10;;
23702;SDS011;12030;50.376;8.762;2023-07-20T13:43:59;1.10;;;0.90;;
23702;SDS011;12030;50.376;8.762;2023-07-20T13:46:25;1.75;;;1.00;;
23702;SDS011;12030;50.376;8.762;2023-07-20T13:48:50;1.30;;;1.20;;
23702;SDS011;12030;50.376;8.762;2023-07-20T13:51:16;4.18;;;1.00;;
23702;SDS011;12030;50.376;8.762;2023-07-20T13:53:42;2.30;;;1.00;;
23702;SDS011;12030;50.376;8.762;2023-07-20T13:56:10;2.22;;;1.10;;
23702;SDS011;12030;50.376;8.762;2023-07-20T13:58:35;2.13;;;1.20;;
23702;SDS011;12030;50.376;8.762;2023-07-20T14:01:01;1.42;;;1.00;;
23702;SDS011;12030;50.376;8.762;2023-07-20T14:03:27;1.83;;;1.10;;
23702;SDS011;12030;50.376;8.762;2023-07-20T14:05:53;1.25;;;1.10;;
23702;SDS011;12030;50.376;8.762;2023-07-20T14:08:18;2.40;;;1.00;;
23702;SDS011;12030;50.376;8.762;2023-07-20T14:10:44;4.65;;;1.20;;
23702;SDS011;12030;50.376;8.762;2023-07-20T14:13:09;2.60;;;1.13;;
23702;SDS011;12030;50.376;8.762;2023-07-20T14:15:35;2.07;;;1.30;;
23702;SDS011;12030;50.376;8.762;2023-07-20T14:18:00;3.97;;;1.60;;
23702;SDS011;12030;50.376;8.762;2023-07-20T14:20:26;2.97;;;1.20;;
23702;SDS011;12030;50.376;8.762;2023-07-20T14:22:52;2.80;;;1.40;;
23702;SDS011;12030;50.376;8.762;2023-07-20T14:25:17;1.23;;;0.97;;
23702;SDS011;12030;50.376;8.762;2023-07-20T14:27:43;1.83;;;1.03;;
23702;SDS011;12030;50.376;8.762;2023-07-20T14:30:08;2.00;;;1.13;;
23702;SDS011;12030;50.376;8.762;2023-07-20T14:32:34;3.83;;;1.07;;
23702;SDS011;12030;50.376;8.762;2023-07-20T14:35:00;1.53;;;1.10;;
23702;SDS011;12030;50.376;8.762;2023-07-20T14:37:25;1.57;;;1.10;;
23702;SDS011;12030;50.376;8.762;2023-07-20T14:39:51;3.10;;;1.10;;
23702;SDS011;12030;50.376;8.762;2023-07-20T14:42:16;2.63;;;1.50;;
23702;SDS011;12030;50.376;8.762;2023-07-20T14:44:43;2.53;;;1.17;;
23702;SDS011;12030;50.376;8.762;2023-07-20T14:47:08;7.85;;;1.40;;
23702;SDS011;12030;50.376;8.762;2023-07-20T14:49:34;2.80;;;1.60;;
23702;SDS011;12030;50.376;8.762;2023-07-20T14:51:59;4.40;;;1.58;;
23702;SDS011;12030;50.376;8.762;2023-07-20T14:54:25;3.87;;;1.57;;
23702;SDS011;12030;50.376;8.762;2023-07-20T14:56:50;4.95;;;1.90;;
23702;SDS011;12030;50.376;8.762;2023-07-20T14:59:17;3.30;;;1.38;;
23702;SDS011;12030;50.376;8.762;2023-07-20T15:01:44;2.58;;;1.50;;